createdAt,value
2022-10-15T00:01:30.665Z,15.63
2022-10-15T00:03:57.606Z,15.95
2022-10-15T00:06:24.469Z,16.65
2022-10-15T00:08:51.298Z,15.63
2022-10-15T00:11:20.970Z,18.63
2022-10-15T00:13:48.258Z,17.98
2022-10-15T00:16:18.010Z,18.02
2022-10-15T00:18:44.853Z,17.70
2022-10-15T00:21:15.071Z,16.23
2022-10-15T00:23:42.430Z,17.70
2022-10-15T00:26:11.966Z,15.00
2022-10-15T00:28:39.243Z,17.02
2022-10-15T00:31:09.534Z,17.52
2022-10-15T00:33:36.893Z,15.40
2022-10-15T00:36:16.858Z,15.38
2022-10-15T00:38:43.811Z,18.25
2022-10-15T00:41:16.844Z,15.38
2022-10-15T00:43:49.406Z,15.98
2022-10-15T00:46:24.666Z,15.50
2022-10-15T00:49:12.705Z,15.85
2022-10-15T00:51:47.856Z,16.05
2022-10-15T00:54:15.761Z,14.85
2022-10-15T00:56:45.149Z,15.05
2022-10-15T00:59:13.637Z,15.85
2022-10-15T01:01:41.444Z,13.82
2022-10-15T01:04:09.000Z,12.95
2022-10-15T01:06:37.478Z,13.82
2022-10-15T01:09:05.098Z,13.65
2022-10-15T01:11:38.990Z,15.10
2022-10-15T01:14:33.858Z,13.95
2022-10-15T01:17:20.128Z,14.73
2022-10-15T01:20:00.630Z,13.40
2022-10-15T01:22:36.540Z,13.93
2022-10-15T01:25:09.577Z,13.95
2022-10-15T01:27:52.349Z,15.05
2022-10-15T01:30:39.192Z,14.45
2022-10-15T01:33:29.578Z,16.17
2022-10-15T01:36:29.742Z,13.85
2022-10-15T01:39:15.145Z,16.65
2022-10-15T01:41:47.300Z,16.20
2022-10-15T01:44:44.607Z,14.57
2022-10-15T01:47:46.452Z,16.38
2022-10-15T01:50:17.335Z,14.82
2022-10-15T01:52:46.031Z,14.15
2022-10-15T01:55:16.089Z,14.77
2022-10-15T01:57:44.694Z,14.90
2022-10-15T02:00:12.106Z,15.20
2022-10-15T02:02:38.882Z,14.10
2022-10-15T02:05:09.467Z,14.43
2022-10-15T02:07:44.086Z,14.95
2022-10-15T02:10:16.972Z,14.60
2022-10-15T02:13:11.211Z,13.90
2022-10-15T02:16:10.019Z,16.75
2022-10-15T02:19:10.217Z,14.15
2022-10-15T02:21:52.653Z,14.35
2022-10-15T02:24:25.435Z,13.07
2022-10-15T02:26:55.026Z,14.00
2022-10-15T02:29:27.163Z,18.10
2022-10-15T02:31:57.451Z,18.05
2022-10-15T02:34:29.887Z,17.20
2022-10-15T02:36:59.038Z,15.75
2022-10-15T02:39:25.929Z,14.55
2022-10-15T02:41:54.710Z,14.95
2022-10-15T02:44:21.785Z,14.40
2022-10-15T02:46:49.080Z,15.90
2022-10-15T02:49:16.009Z,13.75
2022-10-15T02:51:42.820Z,15.10
2022-10-15T02:54:10.151Z,14.05
2022-10-15T02:56:39.328Z,15.55
2022-10-15T02:59:07.261Z,14.98
2022-10-15T03:01:34.971Z,16.15
2022-10-15T03:04:02.576Z,16.58
2022-10-15T03:06:29.636Z,14.75
2022-10-15T03:08:56.415Z,15.57
2022-10-15T03:11:23.186Z,15.38
2022-10-15T03:13:50.357Z,14.10
2022-10-15T03:16:17.194Z,15.38
2022-10-15T03:18:44.065Z,16.92
2022-10-15T03:21:10.874Z,14.38
2022-10-15T03:23:37.631Z,13.68
2022-10-15T03:26:04.815Z,14.60
2022-10-15T03:28:31.694Z,15.45
2022-10-15T03:30:59.846Z,15.05
2022-10-15T03:33:26.952Z,15.90
2022-10-15T03:35:54.361Z,13.93
2022-10-15T03:38:21.247Z,16.25
2022-10-15T03:40:48.029Z,14.80
2022-10-15T03:43:14.807Z,17.63
2022-10-15T03:45:41.978Z,14.75
2022-10-15T03:48:09.189Z,14.60
2022-10-15T03:50:35.977Z,13.20
2022-10-15T03:53:04.877Z,14.73
2022-10-15T03:55:32.017Z,16.73
2022-10-15T03:57:58.946Z,18.63
2022-10-15T04:00:26.266Z,18.88
2022-10-15T04:02:53.015Z,16.60
2022-10-15T04:05:19.846Z,17.27
2022-10-15T04:07:46.602Z,18.80
2022-10-15T04:10:13.393Z,17.00
2022-10-15T04:12:40.146Z,16.00
2022-10-15T04:15:07.802Z,14.77
2022-10-15T04:17:34.982Z,17.50
2022-10-15T04:20:02.151Z,17.83
2022-10-15T04:22:29.290Z,17.85
2022-10-15T04:24:56.440Z,14.90
2022-10-15T04:27:23.199Z,14.77
2022-10-15T04:29:50.002Z,15.25
2022-10-15T04:32:17.036Z,17.58
2022-10-15T04:34:45.729Z,19.38
2022-10-15T04:37:12.982Z,16.42
2022-10-15T04:39:40.109Z,15.02
2022-10-15T04:42:06.928Z,15.88
2022-10-15T04:44:33.822Z,16.40
2022-10-15T04:47:02.583Z,15.23
2022-10-15T04:49:29.357Z,14.60
2022-10-15T04:51:56.106Z,14.60
2022-10-15T04:54:22.937Z,14.43
2022-10-15T04:56:49.678Z,15.75
2022-10-15T04:59:16.826Z,14.52
2022-10-15T05:01:43.661Z,14.35
2022-10-15T05:04:12.307Z,13.07
2022-10-15T05:06:39.225Z,14.65
2022-10-15T05:09:05.984Z,12.68
2022-10-15T05:11:36.677Z,14.30
2022-10-15T05:14:03.815Z,13.20
2022-10-15T05:16:31.285Z,13.45
2022-10-15T05:19:00.418Z,12.05
2022-10-15T05:21:28.163Z,14.27
2022-10-15T05:23:55.663Z,14.40
2022-10-15T05:26:24.684Z,15.77
2022-10-15T05:28:52.309Z,15.35
2022-10-15T05:31:22.685Z,16.90
2022-10-15T05:33:54.073Z,15.98
2022-10-15T05:36:29.148Z,18.33
2022-10-15T05:38:59.241Z,19.65
2022-10-15T05:41:27.251Z,19.77
2022-10-15T05:43:55.970Z,19.40
2022-10-15T05:46:23.487Z,17.55
2022-10-15T05:48:51.612Z,20.08
2022-10-15T05:51:19.176Z,18.95
2022-10-15T05:53:46.499Z,19.73
2022-10-15T05:56:15.051Z,22.05
2022-10-15T05:58:42.000Z,17.90
2022-10-15T06:01:10.918Z,21.70
2022-10-15T06:03:38.891Z,23.00
2022-10-15T06:06:13.018Z,22.60
2022-10-15T06:08:40.277Z,20.73
2022-10-15T06:11:09.399Z,23.40
2022-10-15T06:13:41.500Z,22.42
2022-10-15T06:16:09.197Z,21.75
2022-10-15T06:18:37.070Z,21.17
2022-10-15T06:21:04.377Z,21.23
2022-10-15T06:23:31.379Z,20.98
2022-10-15T06:26:05.994Z,16.25
2022-10-15T06:28:33.857Z,16.40
2022-10-15T06:31:01.681Z,16.20
2022-10-15T06:33:29.238Z,15.45
2022-10-15T06:36:00.283Z,16.50
2022-10-15T06:38:27.805Z,20.92
2022-10-15T06:40:54.719Z,19.05
2022-10-15T06:43:22.133Z,15.77
2022-10-15T06:45:49.402Z,15.70
2022-10-15T06:48:16.301Z,17.05
2022-10-15T06:50:43.792Z,18.77
2022-10-15T06:53:10.794Z,16.35
2022-10-15T06:55:39.507Z,17.67
2022-10-15T06:58:06.925Z,15.65
2022-10-15T07:03:06.077Z,15.13
2022-10-15T07:05:33.960Z,15.50
2022-10-15T07:08:01.208Z,14.55
2022-10-15T07:10:29.596Z,16.42
2022-10-15T07:12:58.904Z,17.23
2022-10-15T07:15:25.798Z,15.40
2022-10-15T07:17:57.052Z,18.98
2022-10-15T07:20:24.434Z,16.75
2022-10-15T07:22:55.864Z,18.00
2022-10-15T07:25:23.220Z,19.35
2022-10-15T07:27:50.139Z,18.63
2022-10-15T07:30:17.242Z,18.00
2022-10-15T07:32:46.497Z,17.45
2022-10-15T07:35:14.434Z,15.02
2022-10-15T07:37:41.505Z,15.88
2022-10-15T07:40:08.867Z,15.55
2022-10-15T07:42:35.838Z,18.30
2022-10-15T07:45:03.438Z,18.92
2022-10-15T07:47:30.406Z,18.33
2022-10-15T07:49:57.397Z,18.38
2022-10-15T07:52:25.327Z,20.50
2022-10-15T07:54:52.957Z,21.77
2022-10-15T07:57:19.822Z,21.77
2022-10-15T07:59:46.688Z,23.20
2022-10-15T08:02:17.644Z,23.70
2022-10-15T08:04:44.603Z,25.33
2022-10-15T08:07:11.968Z,20.92
2022-10-15T08:09:39.279Z,20.08
2022-10-15T08:12:07.098Z,21.95
2022-10-15T08:14:35.274Z,20.38
2022-10-15T08:17:03.607Z,18.30
2022-10-15T08:19:31.820Z,23.63
2022-10-15T08:21:58.895Z,18.52
2022-10-15T08:24:27.379Z,20.40
2022-10-15T08:26:56.783Z,20.85
2022-10-15T08:29:26.358Z,12.85
2022-10-15T08:31:56.322Z,18.02
2022-10-15T08:34:33.631Z,17.83
2022-10-15T08:37:02.845Z,15.90
2022-10-15T08:39:29.761Z,15.20
2022-10-15T08:42:06.458Z,14.30
2022-10-15T08:44:46.043Z,15.73
2022-10-15T08:47:31.565Z,16.15
2022-10-15T08:50:04.824Z,15.13
2022-10-15T08:52:47.138Z,17.17
2022-10-15T08:55:16.624Z,16.63
2022-10-15T08:57:53.296Z,13.40
2022-10-15T09:00:24.147Z,15.40
2022-10-15T09:03:05.053Z,15.60
2022-10-15T09:05:43.297Z,14.55
2022-10-15T09:08:31.241Z,13.25
2022-10-15T09:11:04.498Z,11.38
2022-10-15T09:16:19.311Z,14.10
2022-10-15T09:18:52.456Z,13.77
2022-10-15T09:21:24.237Z,14.73
2022-10-15T09:23:52.304Z,13.13
2022-10-15T09:26:32.519Z,12.70
2022-10-15T09:29:41.885Z,10.88
2022-10-15T09:32:31.466Z,11.00
2022-10-15T09:35:15.682Z,12.38
2022-10-15T09:38:23.762Z,12.15
2022-10-15T09:41:16.545Z,11.65
2022-10-15T09:43:48.460Z,10.57
2022-10-15T09:46:15.422Z,10.70
2022-10-15T09:49:03.365Z,9.98
2022-10-15T09:51:44.230Z,9.57
2022-10-15T09:54:25.156Z,9.05
2022-10-15T09:56:55.563Z,8.90
2022-10-15T09:59:23.965Z,8.48
2022-10-15T10:02:03.144Z,8.70
2022-10-15T10:04:32.292Z,8.70
2022-10-15T10:07:02.436Z,8.80
2022-10-15T10:09:36.409Z,8.68
2022-10-15T10:12:17.898Z,8.75
2022-10-15T10:15:08.676Z,8.15
2022-10-15T10:17:35.908Z,8.25
2022-10-15T10:20:08.923Z,9.57
2022-10-15T10:22:53.572Z,8.10
2022-10-15T10:25:29.496Z,6.90
2022-10-15T10:28:02.727Z,7.88
2022-10-15T10:30:38.305Z,7.80
2022-10-15T10:33:06.264Z,7.88
2022-10-15T10:35:50.624Z,9.20
2022-10-15T10:38:23.113Z,8.93
2022-10-15T10:41:07.712Z,7.88
2022-10-15T10:43:39.225Z,7.32
2022-10-15T10:46:19.727Z,6.78
2022-10-15T10:48:49.048Z,6.57
2022-10-15T10:51:22.837Z,6.82
2022-10-15T10:53:59.366Z,7.20
2022-10-15T10:56:37.712Z,8.65
2022-10-15T10:59:20.765Z,8.27
2022-10-15T11:01:48.077Z,7.40
2022-10-15T11:04:24.805Z,7.60
2022-10-15T11:07:00.274Z,6.75
2022-10-15T11:09:44.549Z,7.75
2022-10-15T11:13:04.981Z,7.85
2022-10-15T11:15:43.385Z,7.20
2022-10-15T11:18:47.882Z,7.82
2022-10-15T11:21:37.646Z,6.75
2022-10-15T11:24:23.857Z,7.63
2022-10-15T11:27:10.063Z,8.15
2022-10-15T11:29:50.238Z,7.93
2022-10-15T11:32:25.665Z,9.07
2022-10-15T11:35:16.927Z,8.23
2022-10-15T11:37:59.864Z,8.48
2022-10-15T11:40:46.884Z,8.73
2022-10-15T11:43:52.989Z,9.10
2022-10-15T11:46:44.184Z,9.57
2022-10-15T11:49:21.742Z,13.07
2022-10-15T11:52:17.456Z,9.07
2022-10-15T11:54:55.722Z,9.38
2022-10-15T11:57:25.421Z,9.18
2022-10-15T12:00:01.647Z,9.95
2022-10-15T12:02:37.449Z,9.20
2022-10-15T12:05:19.983Z,13.27
2022-10-15T12:07:50.109Z,11.73
2022-10-15T12:10:35.946Z,11.20
2022-10-15T12:13:17.894Z,11.30
2022-10-15T12:16:00.153Z,11.65
2022-10-15T12:18:43.321Z,11.55
2022-10-15T12:21:40.928Z,10.75
2022-10-15T12:24:40.882Z,10.85
2022-10-15T12:27:19.602Z,12.35
2022-10-15T12:30:13.509Z,11.30
2022-10-15T12:32:43.219Z,10.82
2022-10-15T12:35:16.524Z,12.38
2022-10-15T12:37:46.703Z,11.40
2022-10-15T12:40:22.537Z,10.30
2022-10-15T12:42:59.378Z,10.05
2022-10-15T12:45:40.441Z,11.18
2022-10-15T12:48:16.564Z,9.55
2022-10-15T12:50:43.631Z,10.00
2022-10-15T12:53:34.510Z,9.63
2022-10-15T12:56:10.776Z,8.35
2022-10-15T12:58:41.694Z,9.25
2022-10-15T13:01:15.145Z,8.18
2022-10-15T13:03:51.455Z,7.70
2022-10-15T13:06:21.507Z,7.70
2022-10-15T13:08:56.778Z,8.93
2022-10-15T13:11:30.000Z,8.90
2022-10-15T13:14:09.833Z,10.02
2022-10-15T13:16:37.002Z,9.90
2022-10-15T13:19:05.012Z,10.52
2022-10-15T13:21:50.606Z,9.48
2022-10-15T13:24:23.368Z,8.88
2022-10-15T13:26:51.526Z,9.63
2022-10-15T13:29:24.088Z,9.95
2022-10-15T13:31:53.384Z,9.82
2022-10-15T13:34:28.473Z,10.25
2022-10-15T13:36:59.970Z,10.90
2022-10-15T13:39:36.352Z,8.82
2022-10-15T13:42:15.101Z,10.35
2022-10-15T13:44:42.494Z,10.50
2022-10-15T13:47:36.371Z,11.73
2022-10-15T13:50:22.115Z,11.05
2022-10-15T13:52:52.700Z,11.55
2022-10-15T13:55:25.123Z,11.68
2022-10-15T13:57:59.440Z,11.23
2022-10-15T14:00:29.985Z,11.75
2022-10-15T14:03:17.793Z,10.93
2022-10-15T14:05:46.613Z,11.70
2022-10-15T14:08:20.821Z,12.95
2022-10-15T14:10:49.677Z,13.35
2022-10-15T14:13:16.957Z,14.13
2022-10-15T14:15:49.237Z,13.75
2022-10-15T14:18:27.489Z,14.23
2022-10-15T14:20:55.186Z,13.90
2022-10-15T14:23:27.422Z,14.48
2022-10-15T14:25:57.203Z,14.00
2022-10-15T14:28:25.182Z,13.60
2022-10-15T14:30:52.982Z,13.80
2022-10-15T14:33:38.319Z,12.85
2022-10-15T14:36:14.135Z,12.35
2022-10-15T14:38:42.282Z,13.02
2022-10-15T14:41:28.349Z,11.43
2022-10-15T14:44:18.478Z,11.82
2022-10-15T14:46:49.359Z,11.88
2022-10-15T14:49:27.073Z,10.90
2022-10-15T14:52:07.634Z,11.70
2022-10-15T14:54:42.840Z,11.52
2022-10-15T14:57:27.045Z,12.35
2022-10-15T14:59:56.087Z,11.70
2022-10-15T15:02:26.450Z,12.93
2022-10-15T15:05:12.497Z,13.85
2022-10-15T15:07:40.305Z,13.80
2022-10-15T15:10:08.816Z,15.57
2022-10-15T15:12:38.202Z,16.17
2022-10-15T15:15:14.622Z,15.50
2022-10-15T15:17:41.658Z,15.75
2022-10-15T15:20:10.533Z,14.73
2022-10-15T15:22:39.174Z,15.32
2022-10-15T15:25:21.659Z,15.63
2022-10-15T15:27:48.489Z,14.13
2022-10-15T15:30:20.577Z,15.10
2022-10-15T15:32:48.257Z,15.63
2022-10-15T15:35:44.959Z,15.00
2022-10-15T15:38:12.227Z,15.88
2022-10-15T15:40:39.639Z,16.27
2022-10-15T15:43:06.428Z,18.13
2022-10-15T15:45:33.355Z,18.05
2022-10-15T15:48:03.491Z,17.20
2022-10-15T15:50:30.695Z,19.10
2022-10-15T15:52:57.470Z,19.80
2022-10-15T15:55:24.815Z,19.33
2022-10-15T15:57:51.711Z,20.00
2022-10-15T16:00:18.952Z,19.42
2022-10-15T16:02:45.982Z,19.05
2022-10-15T16:05:16.991Z,19.05
2022-10-15T16:07:44.818Z,19.02
2022-10-15T16:10:12.649Z,21.00
2022-10-15T16:12:40.546Z,22.05
2022-10-15T16:15:11.687Z,19.33
2022-10-15T16:17:41.585Z,18.52
2022-10-15T16:20:09.681Z,20.80
2022-10-15T16:22:36.645Z,22.40
2022-10-15T16:25:04.327Z,23.20
2022-10-15T16:27:32.811Z,24.95
2022-10-15T16:29:59.750Z,29.52
2022-10-15T16:32:27.171Z,33.88
2022-10-15T16:34:54.383Z,28.75
2022-10-15T16:37:21.347Z,33.22
2022-10-15T16:39:48.286Z,32.72
2022-10-15T16:42:15.676Z,28.77
2022-10-15T16:44:42.615Z,29.10
2022-10-15T16:47:09.562Z,25.70
2022-10-15T16:49:36.570Z,28.77
2022-10-15T16:52:04.334Z,37.53
2022-10-15T16:54:31.231Z,25.63
2022-10-15T16:56:58.498Z,26.38
2022-10-15T16:59:25.485Z,28.40
2022-10-15T17:01:52.441Z,36.60
2022-10-15T17:04:19.947Z,31.60
2022-10-15T17:06:46.943Z,28.75
2022-10-15T17:09:13.877Z,25.70
2022-10-15T17:11:43.068Z,26.48
2022-10-15T17:14:13.051Z,27.92
2022-10-15T17:16:44.424Z,26.65
2022-10-15T17:19:13.354Z,27.42
2022-10-15T17:21:42.462Z,26.13
2022-10-15T17:24:13.731Z,25.88
2022-10-15T17:26:42.586Z,24.73
2022-10-15T17:29:13.484Z,28.20
2022-10-15T17:31:40.494Z,27.20
2022-10-15T17:34:09.909Z,27.75
2022-10-15T17:36:42.858Z,31.25
2022-10-15T17:39:13.618Z,27.75
2022-10-15T17:41:41.287Z,27.90
2022-10-15T17:44:08.479Z,24.85
2022-10-15T17:46:35.439Z,21.60
2022-10-15T17:49:03.655Z,22.52
2022-10-15T17:51:32.676Z,27.08
2022-10-15T17:54:00.807Z,37.80
2022-10-15T17:56:35.457Z,32.45
2022-10-15T17:59:05.713Z,37.35
2022-10-15T18:04:23.104Z,31.88
2022-10-15T18:06:50.328Z,31.88
2022-10-15T18:09:18.318Z,37.60
2022-10-15T18:11:46.314Z,31.63
2022-10-15T18:14:13.269Z,34.58
2022-10-15T18:16:43.082Z,34.65
2022-10-15T18:19:12.198Z,34.50
2022-10-15T18:21:41.379Z,34.72
2022-10-15T18:24:10.958Z,34.30
2022-10-15T18:26:38.132Z,31.45
2022-10-15T18:29:05.442Z,31.02
2022-10-15T18:31:32.931Z,30.63
2022-10-15T18:33:59.942Z,30.85
2022-10-15T18:36:29.122Z,27.85
2022-10-15T18:38:57.117Z,29.27
2022-10-15T18:41:27.922Z,25.98
2022-10-15T18:44:00.794Z,31.15
2022-10-15T18:46:28.741Z,28.27
2022-10-15T18:48:56.127Z,25.45
2022-10-15T18:51:25.409Z,20.35
2022-10-15T18:53:53.315Z,27.67
2022-10-15T18:56:20.778Z,33.15
2022-10-15T18:58:48.171Z,34.72
2022-10-15T19:01:25.869Z,25.42
2022-10-15T19:03:57.214Z,27.98
2022-10-15T19:06:27.526Z,26.67
2022-10-15T19:09:00.830Z,27.45
2022-10-15T19:11:28.449Z,27.70
2022-10-15T19:13:59.901Z,28.75
2022-10-15T19:16:27.936Z,27.70
2022-10-15T19:18:55.242Z,32.58
2022-10-15T19:21:22.143Z,29.17
2022-10-15T19:23:48.927Z,29.45
2022-10-15T19:26:16.368Z,30.65
2022-10-15T19:28:43.662Z,28.70
2022-10-15T19:31:17.124Z,34.55
2022-10-15T19:33:44.300Z,31.65
2022-10-15T19:36:11.231Z,33.28
2022-10-15T19:38:38.224Z,32.05
2022-10-15T19:41:05.209Z,29.65
2022-10-15T19:43:32.344Z,30.25
2022-10-15T19:46:03.805Z,29.52
2022-10-15T19:48:31.278Z,30.83
2022-10-15T19:51:01.944Z,29.70
2022-10-15T19:53:30.579Z,29.92
2022-10-15T19:56:02.574Z,29.77
2022-10-15T19:58:29.938Z,26.60
2022-10-15T20:00:57.470Z,30.15
2022-10-15T20:03:27.126Z,30.42
2022-10-15T20:05:54.567Z,27.42
2022-10-15T20:08:22.889Z,27.85
2022-10-15T20:10:51.603Z,32.72
2022-10-15T20:13:20.512Z,25.25
2022-10-15T20:15:49.971Z,26.92
2022-10-15T20:18:17.593Z,26.40
2022-10-15T20:20:46.050Z,23.38
2022-10-15T20:23:15.276Z,26.80
2022-10-15T20:25:43.243Z,23.58
2022-10-15T20:28:11.880Z,31.42
2022-10-15T20:30:40.310Z,33.80
2022-10-15T20:33:08.067Z,32.33
2022-10-15T20:35:36.246Z,24.85
2022-10-15T20:38:04.464Z,18.35
2022-10-15T20:40:32.315Z,23.17
2022-10-15T20:42:59.325Z,21.10
2022-10-15T20:45:31.409Z,19.95
2022-10-15T20:47:58.598Z,20.67
2022-10-15T20:50:32.177Z,23.55
2022-10-15T20:52:59.563Z,22.02
2022-10-15T20:55:26.961Z,21.23
2022-10-15T20:57:54.929Z,22.98
2022-10-15T21:00:22.718Z,19.70
2022-10-15T21:02:49.570Z,23.67
2022-10-15T21:05:16.957Z,22.83
2022-10-15T21:07:44.099Z,24.27
2022-10-15T21:10:11.299Z,29.75
2022-10-15T21:12:38.896Z,31.15
2022-10-15T21:15:07.221Z,32.78
2022-10-15T21:17:34.190Z,29.60
2022-10-15T21:20:01.613Z,28.52
2022-10-15T21:22:28.621Z,27.80
2022-10-15T21:24:55.958Z,26.90
2022-10-15T21:27:23.495Z,26.27
2022-10-15T21:29:50.805Z,24.17
2022-10-15T21:32:18.363Z,22.95
2022-10-15T21:34:45.455Z,21.98
2022-10-15T21:37:13.656Z,22.98
2022-10-15T21:39:40.874Z,21.27
2022-10-15T21:42:09.119Z,19.73
2022-10-15T21:44:37.020Z,17.85
2022-10-15T21:47:05.432Z,21.50
2022-10-15T21:49:32.746Z,23.17
2022-10-15T21:51:59.964Z,21.65
2022-10-15T21:54:27.330Z,22.13
2022-10-15T21:56:54.698Z,23.38
2022-10-15T21:59:24.671Z,26.45
2022-10-15T22:01:51.963Z,25.65
2022-10-15T22:04:19.045Z,26.27
2022-10-15T22:06:45.904Z,25.40
2022-10-15T22:09:13.193Z,22.83
2022-10-15T22:11:43.635Z,23.48
2022-10-15T22:14:12.732Z,22.80
2022-10-15T22:16:40.517Z,24.50
2022-10-15T22:19:11.250Z,27.65
2022-10-15T22:21:39.056Z,24.70
2022-10-15T22:24:20.583Z,23.83
2022-10-15T22:26:51.685Z,25.30
2022-10-15T22:29:31.702Z,24.23
2022-10-15T22:32:01.858Z,24.55
2022-10-15T22:34:28.878Z,24.17
2022-10-15T22:36:55.742Z,23.85
2022-10-15T22:39:22.576Z,19.70
2022-10-15T22:41:49.555Z,21.10
2022-10-15T22:44:19.835Z,23.52
2022-10-15T22:46:49.270Z,22.20
2022-10-15T22:49:18.142Z,21.67
2022-10-15T22:51:45.877Z,20.77
2022-10-15T22:54:12.818Z,18.23
2022-10-15T22:56:39.726Z,23.00
2022-10-15T22:59:06.615Z,25.90
2022-10-15T23:01:35.383Z,26.90
2022-10-15T23:04:05.085Z,24.63
2022-10-15T23:06:34.754Z,25.05
2022-10-15T23:09:04.719Z,27.13
2022-10-15T23:11:39.865Z,26.42
2022-10-15T23:14:13.469Z,25.55
2022-10-15T23:16:43.471Z,24.98
2022-10-15T23:19:22.332Z,22.55
2022-10-15T23:21:56.219Z,22.17
2022-10-15T23:24:26.144Z,24.70
2022-10-15T23:27:00.771Z,20.30
2022-10-15T23:29:34.277Z,20.45
2022-10-15T23:32:01.588Z,23.85
2022-10-15T23:34:29.051Z,22.13
2022-10-15T23:36:56.527Z,24.45
2022-10-15T23:39:26.762Z,22.23
2022-10-15T23:41:55.452Z,21.20
2022-10-15T23:44:25.710Z,21.60
2022-10-15T23:46:53.117Z,20.23
2022-10-15T23:49:20.332Z,19.55
2022-10-15T23:51:47.844Z,21.13
2022-10-15T23:54:17.795Z,19.92
2022-10-15T23:56:46.130Z,18.30
2022-10-15T23:59:13.401Z,20.15
